Oviedo en Asturias

latitud = 43° 21' 16''N | longitud = 005° 52' 22''W
231 metros sobre el nivel del mar | datos mensuales

Fecha, hora, temperatura, viento dirección y velocidad, humedad y presión.

  • 16-08-2018 02:00:00 | 18.80°C | Sur |3.00 km/h | 93.00% | 978.90 hPa
  • 16-08-2018 01:00:00 | 18.90°C | Noroeste |4.00 km/h | 91.00% | 978.70 hPa
  • 16-08-2018 00:00:00 | 19.00°C | Noroeste |2.00 km/h | 90.00% | 978.50 hPa
  • 15-08-2018 23:00:00 | 19.40°C | Noroeste |2.00 km/h | 89.00% | 978.40 hPa
  • 15-08-2018 22:00:00 | 19.80°C | Calma |0.00 km/h | 85.00% | 978.20 hPa
  • 15-08-2018 21:00:00 | 20.60°C | Este |5.00 km/h | 81.00% | 977.80 hPa
  • 15-08-2018 20:00:00 | 21.70°C | Nordeste |5.00 km/h | 77.00% | 978.00 hPa
  • 15-08-2018 19:00:00 | 23.70°C | Nordeste |9.00 km/h | 68.00% | 978.00 hPa
  • 15-08-2018 18:00:00 | 24.80°C | Nordeste |9.00 km/h | 65.00% | 978.10 hPa
  • 15-08-2018 17:00:00 | 24.60°C | Nordeste |13.00 km/h | 62.00% | 978.30 hPa
  • 15-08-2018 16:00:00 | 25.50°C | Nordeste |9.00 km/h | 58.00% | 978.60 hPa
  • 15-08-2018 15:00:00 | 25.10°C | Norte |7.00 km/h | 57.00% | 979.10 hPa
  • 15-08-2018 14:00:00 | 25.00°C | Este |9.00 km/h | 57.00% | 979.40 hPa
  • 15-08-2018 13:00:00 | 24.20°C | Este |11.00 km/h | 59.00% | 979.80 hPa
  • 15-08-2018 12:00:00 | 22.30°C | Este |7.00 km/h | 63.00% | 980.00 hPa
  • 15-08-2018 11:00:00 | 20.60°C | Este |5.00 km/h | 73.00% | 980.10 hPa
  • 15-08-2018 10:00:00 | 18.00°C | Este |4.00 km/h | 83.00% | 980.40 hPa
  • 15-08-2018 09:00:00 | 16.40°C | Este |6.00 km/h | 89.00% | 980.50 hPa
  • 15-08-2018 08:00:00 | 16.30°C | Este |6.00 km/h | 91.00% | 980.50 hPa
  • 15-08-2018 07:00:00 | 15.70°C | Este |9.00 km/h | 91.00% | 980.70 hPa
  • 15-08-2018 06:00:00 | 16.80°C | Este |6.00 km/h | 88.00% | 981.10 hPa
  • 15-08-2018 05:00:00 | 17.20°C | Este |5.00 km/h | 88.00% | 981.40 hPa
  • 15-08-2018 04:00:00 | 17.10°C | Este |7.00 km/h | 88.00% | 981.90 hPa
  • 15-08-2018 03:00:00 | 17.50°C | Este |5.00 km/h | 86.00% | 982.40 hPa